Alsip, IL

12:38 AM CDT on August 29, 2016 (GMT -0500)
151st & Central Ave. | | Change Station

Elev 645 ft 41.62 °N, 87.76 °W | Updated 8 seconds ago

Mostly Cloudy
Mostly Cloudy
70.3 °F
Feels Like 70.3 °F
N
0.0
Wind Variable Wind from ENE
Gusts 0.0 mph

Today
High -- | Low -- °F
--% Chance of Precip.
Yesterday
High -- | Low -- °F
Precip. -- in
Pressure 30.20 in
Visibility 10.0 miles
Clouds Few 4700 ft
Scattered Clouds 18000 ft
Mostly Cloudy 25000 ft
Dew Point 66 °F
Humidity 86%
Rainfall 0.00 in
Snow Depth Not available.
6:14 AM 7:28 PM
Waning Crescent, 11% visible
METAR KMDW 290453Z 06006KT 10SM FEW047 SCT180 BKN250 24/20 A3023 RMK AO2 SLP225 T02390200
Pressure 30.20 in
Visibility 10.0 miles
Clouds Few 4700 ft
Scattered Clouds 18000 ft
Mostly Cloudy 25000 ft
Dew Point 66 °F
Humidity 86%
Rainfall 0.00 in
Snow Depth Not available.
6:14 AM 7:28 PM
Waning Crescent, 11% visible
METAR KMDW 290453Z 06006KT 10SM FEW047 SCT180 BKN250 24/20 A3023 RMK AO2 SLP225 T02390200

10-Day Weather Forecast

Almanac

Astronomy

Aug. 29, 2016 Rise Set
Actual Time
Civil Twilight
Nautical Twilight
Astronomical Twilight
Moon
Length of Visible Light
Length of Day
Tomorrow will be .
, % of the Moon is Illuminated

Today's Extremes

State Highs State Lows

Community

WunderPhotos

Upload Photos

1,935,800 photos uploaded!

WunderBlog® & News

Nearby

Air Quality

  Air Quality AQ Index Pollutant
Not available.

Snow Depth

Station Depth Elevation

Earthquake Activity

City Distance Mag. Time & Date
Minimum magnitude displayed is 2.5.

Coastal Water Temperatures

Place Temperature

Stations

Nearby Weather Stations

Station Location Temp. Windchill Dew Point Humidity Wind Precip. Elev Updated Type
                   

Watches & Warnings

There are currently no watches in effect.